• Join FlightAware (Why Join?)
  • Login
  • US Flag 
06:12AM EDT


 

Airport Tracker/Info


-or-


 

Live Flight TrackerFlight Track Log ✈ AWE479 ✈ 22-May-2013 ✈ KCLT - KDEN

Flight Track Log - Related Links

Times and Time Zones

All times are in EDT time to prevent confusion due to time zone crossing. See the AWE479 flight status page for this flight to view local times or setup timezone preferences in your user account.

Time Position Orientation Groundspeed Altitude Reporting Facility
EDT Latitude Longitude Course Direction KTS MPH feet Rate Location/Type
07:45AM 35.1933 -80.9533 52° Northeast 176 203 1,500  Level Atlanta Center
07:46AM 35.1661 -80.9519 178° South 163 188 2,500 1,620 Climbing Atlanta Center
07:48AM 35.1235 -81.2167 North  Level FlightAware Approximate
07:49AM 35.2407 -81.2167 North  Level FlightAware Approximate
07:50AM 35.3124 -81.1211 52° Northeast  Level FlightAware Approximate
07:51AM 35.3310 -81.0750 178° South 344 396 11,200  Level FlightAware
07:52AM 35.3950 -81.0440 22° Northeast 378 435 11,900 840 Climbing FlightAware
07:53AM 35.4700 -81.0060 22° Northeast 380 437 12,600 420 Climbing FlightAware
07:53AM 35.5260 -80.9790 21° North 380 437 12,600  Level FlightAware
07:54AM 35.5810 -80.9510 22° Northeast 380 437 12,600 2,460 Level FlightAware
07:55AM 35.4690 -81.0070 202° Southwest 386 444 16,700 2,460 Climbing FlightAware
07:56AM 35.5260 -80.9790 22° Northeast 386 444 16,700  Level FlightAware
07:56AM 35.5820 -80.9510 22° Northeast 386 444 16,700  Level FlightAware
07:57AM 35.6380 -80.9230 22° Northeast 386 444 16,700  Level FlightAware
07:58AM 35.7090 -80.8880 22° Northeast 386 444 16,700  Level FlightAware
07:58AM 35.7650 -80.8600 22° Northeast 386 444 16,700 2,280 Level FlightAware
08:00AM 36.3067 -81.5673 314° West 455 524 23,000 2,280 Climbing FlightAware ADS-B
08:01AM 36.3886 -81.6267 330° Northwest 455 524 23,200 540 Climbing FlightAware ADS-B
08:02AM 36.4445 -81.6674 330° Northwest 461 531 23,700 840 Climbing FlightAware ADS-B
08:02AM 36.5295 -81.7295 330° Northwest 466 536 24,300 900 Climbing FlightAware ADS-B
08:03AM 36.5929 -81.7760 330° Northwest 470 541 24,900 900 Climbing FlightAware ADS-B
08:04AM 36.6498 -81.8179 329° Northwest 475 547 25,300 780 Climbing FlightAware ADS-B
08:04AM 36.7029 -81.8599 328° Northwest 475 547 25,700 660 Climbing FlightAware ADS-B
08:05AM 36.7587 -81.9119 323° Northwest 480 552 26,000 600 Climbing FlightAware ADS-B
08:05AM 36.8356 -81.9844 323° Northwest 482 555 26,500 720 Climbing FlightAware ADS-B
08:06AM 36.8932 -82.0392 323° Northwest 490 564 26,900 840 Climbing FlightAware ADS-B
08:06AM 36.9508 -82.0940 323° Northwest 491 565 27,400 840 Climbing FlightAware ADS-B
08:07AM 36.9918 -82.1334 322° Northwest 492 566 27,700 840 Climbing FlightAware ADS-B
08:07AM 37.0121 -82.1575 317° Northwest 490 564 27,900 960 Climbing FlightAware ADS-B
08:07AM 37.0357 -82.1968 307° West 486 559 28,200 1,140 Climbing FlightAware ADS-B
08:08AM 37.0581 -82.2754 290° West 486 559 28,800 1,200 Climbing FlightAware ADS-B
08:08AM 37.0619 -82.2996 281° West 473 544 29,000 780 Climbing FlightAware ADS-B
08:08AM 37.0762 -82.3899 281° West 474 545 29,400 900 Climbing FlightAware ADS-B
08:09AM 37.0896 -82.4755 281° West 470 541 30,000 660 Climbing FlightAware ADS-B
08:09AM 37.1023 -82.5578 281° West 472 543 30,100 600 Climbing FlightAware ADS-B
08:10AM 37.1159 -82.6472 281° West 472 543 30,700 1,200 Climbing FlightAware ADS-B
08:11AM 37.1282 -82.7276 281° West 460 529 31,400 840 Climbing FlightAware ADS-B
08:11AM 37.1413 -82.8135 281° West 463 533 31,600 480 Climbing FlightAware ADS-B
08:12AM 37.1561 -82.9120 281° West 459 528 32,000 300 Climbing FlightAware ADS-B
08:12AM 37.1686 -82.9951 281° West 462 532 32,000  Level FlightAware ADS-B
08:13AM 37.1805 -83.0744 281° West 464 534 32,000  Level FlightAware ADS-B
08:13AM 37.1924 -83.1554 280° West 459 528 32,000  Level FlightAware ADS-B
08:14AM 37.2050 -83.2406 281° West 458 527 32,000  Level FlightAware ADS-B
08:14AM 37.2181 -83.3288 281° West 455 524 32,000  Level FlightAware ADS-B
08:15AM 37.2327 -83.4296 280° West 455 524 32,000  Level FlightAware ADS-B
08:16AM 37.2532 -83.5703 280° West 452 520 32,000  Level FlightAware ADS-B
08:19AM 37.3301 -84.1103 280° West 461 531 32,000  Level FlightAware ADS-B
08:20AM 37.3416 -84.1940 280° West 465 535 32,000  Level FlightAware ADS-B
08:20AM 37.3538 -84.2821 280° West 467 537 32,000 60 Level FlightAware ADS-B
08:21AM 37.3758 -84.4418 280° West 471 542 32,100 60 Climbing FlightAware ADS-B
08:22AM 37.3872 -84.5247 280° West 472 543 32,100  Level FlightAware ADS-B
08:22AM 37.3982 -84.6058 280° West 470 541 32,100  Level FlightAware ADS-B
08:23AM 37.4092 -84.6878 280° West 469 540 32,100  Level FlightAware ADS-B
08:23AM 37.4200 -84.7682 280° West 466 536 32,100 -120 Level FlightAware ADS-B
08:24AM 37.4322 -84.8590 280° West 465 535 32,000 -120 Descending FlightAware ADS-B
08:25AM 37.4430 -84.9390 280° West 463 533 32,000  Level FlightAware
08:25AM 37.4448 -84.9537 279° West 462 532 32,000  Level FlightAware ADS-B
08:25AM 37.4559 -85.0378 279° West 459 528 32,000  Level FlightAware ADS-B
08:26AM 37.4689 -85.1374 279° West 454 522 32,000  Level FlightAware ADS-B
08:26AM 37.4792 -85.2165 279° West 452 520 32,000  Level FlightAware ADS-B
08:27AM 37.4900 -85.2998 279° West 451 519 32,000  Level FlightAware ADS-B
08:28AM 37.5036 -85.4047 279° West 450 518 32,000  Level FlightAware ADS-B
08:28AM 37.5130 -85.4780 279° West 448 516 32,000  Level FlightAware
08:28AM 37.5206 -85.5378 279° West 450 518 32,000  Level FlightAware ADS-B
08:29AM 37.5310 -85.6204 279° West 450 518 32,000  Level FlightAware ADS-B
08:29AM 37.5390 -85.6850 279° West 451 519 32,000  Level FlightAware
08:30AM 37.5431 -85.7161 279° West 451 519 32,000  Level FlightAware ADS-B
08:30AM 37.5555 -85.8153 279° West 452 520 32,000  Level FlightAware ADS-B
08:31AM 37.5653 -85.8943 279° West 453 521 32,000  Level FlightAware ADS-B
08:31AM 37.5769 -85.9881 279° West 454 522 32,000  Level FlightAware ADS-B
08:32AM 37.5950 -86.1350 279° West 458 527 32,000  Level FlightAware
08:33AM 37.6080 -86.2430 279° West 459 528 32,000 60 Level FlightAware
08:34AM 37.6220 -86.3600 279° West 457 526 32,100 60 Climbing FlightAware
08:34AM 37.6350 -86.4650 279° West 453 521 32,100 -120 Level FlightAware
08:35AM 37.6490 -86.5850 278° West 451 519 32,000 -120 Descending FlightAware
08:36AM 37.6610 -86.6860 279° West 448 516 32,000  Level FlightAware
08:36AM 37.6730 -86.7900 278° West 444 511 32,000  Level FlightAware
08:37AM 37.6860 -86.9050 278° West 441 507 32,000 -180 Level FlightAware
08:38AM 37.6980 -87.0080 278° West 441 507 31,800 -660 Descending FlightAware
08:39AM 37.7110 -87.1230 278° West 442 509 31,100 -1,020 Descending FlightAware
08:39AM 37.7230 -87.2250 278° West 441 507 30,400 -780 Descending FlightAware
08:40AM 37.7350 -87.3380 278° West 434 499 30,000 -300 Descending FlightAware
08:41AM 37.7460 -87.4370 278° West 435 501 30,000  Level FlightAware
08:41AM 37.7590 -87.5500 278° West 438 504 30,000  Level FlightAware
08:42AM 37.7700 -87.6510 278° West 424 488 30,000  Level FlightAware
08:43AM 37.7800 -87.7500 277° West 420 483 30,000  Level FlightAware
08:43AM 37.7920 -87.8600 278° West 426 490 30,000  Level FlightAware
08:44AM 37.8030 -87.9600 278° West 423 487 30,000  Level FlightAware
08:45AM 37.8130 -88.0550 278° West 425 489 30,000  Level FlightAware
08:46AM 37.8240 -88.1630 277° West 427 491 30,000  Level FlightAware
08:46AM 37.8350 -88.2650 278° West 428 493 30,000  Level FlightAware
08:47AM 37.8460 -88.3780 277° West 426 490 30,000  Level FlightAware
08:48AM 37.8560 -88.4720 278° West 428 493 30,000  Level FlightAware
08:48AM 37.8660 -88.5710 277° West 429 494 30,000  Level FlightAware
08:49AM 37.8780 -88.6880 277° West 430 495 30,000  Level FlightAware
08:50AM 37.8860 -88.7710 277° West 430 495 30,000  Level FlightAware
08:50AM 37.8990 -88.9030 277° West 430 495 30,000  Level FlightAware
08:51AM 37.9110 -89.0300 277° West 429 494 30,000  Level FlightAware
08:52AM 37.9210 -89.1370 277° West 432 497 30,000  Level FlightAware
08:53AM 37.9320 -89.2450 277° West 433 498 30,000  Level FlightAware
08:53AM 37.9410 -89.3500 276° West 434 499 30,000  Level FlightAware
08:54AM 37.9520 -89.4670 277° West 431 496 30,000  Level FlightAware
08:55AM 37.9610 -89.5740 276° West 431 496 30,000  Level FlightAware
08:56AM 37.9680 -89.6590 276° West 431 496 30,000  Level FlightAware
08:56AM 37.9750 -89.7450 276° West 431 496 30,000  Level FlightAware
08:57AM 37.9820 -89.8310 276° West 431 496 30,000  Level FlightAware
08:58AM 38.0260 -90.0140 287° West 445 512 30,000  Level FlightAware
08:59AM 38.0480 -90.1190 285° West 445 512 30,000  Level FlightAware
08:59AM 38.0660 -90.2050 285° West 445 512 30,000  Level FlightAware
09:00AM 38.0840 -90.2910 285° West 445 512 30,000  Level FlightAware
09:01AM 38.1020 -90.3770 285° West 445 512 30,000  Level FlightAware
09:01AM 38.1200 -90.4630 285° West 445 512 30,000  Level FlightAware
09:02AM 38.1430 -90.5700 285° West 445 512 30,000  Level FlightAware
09:03AM 38.1610 -90.6560 285° West 445 512 30,000  Level FlightAware
09:03AM 38.1790 -90.7420 285° West 445 512 30,000  Level FlightAware
09:04AM 38.1970 -90.8280 285° West 445 512 30,000  Level FlightAware
09:05AM 38.2150 -90.9140 285° West 445 512 30,000  Level FlightAware
09:06AM 38.2380 -91.0220 285° West 445 512 30,000  Level FlightAware
09:06AM 38.2560 -91.1080 285° West 445 512 30,000  Level FlightAware
09:07AM 38.2740 -91.1940 285° West 445 512 30,000  Level FlightAware
09:08AM 38.2920 -91.2800 285° West 445 512 30,000  Level FlightAware
09:08AM 38.1183 -91.5614 285° West 415 478 30,000 300 Level Kansas City Center
09:09AM 38.1200 -91.7108 271° West 420 483 30,600 540 Climbing Kansas City Center
09:15AM 38.1240 -92.5780 271° West 431 496 34,000 480 Climbing FlightAware
09:16AM 38.1240 -92.6640 270° West 431 496 34,000  Level FlightAware
09:16AM 38.1240 -92.7500 270° West 431 496 34,000  Level FlightAware
09:17AM 38.1240 -92.8370 270° West 431 496 34,000  Level FlightAware
09:18AM 38.1240 -92.9230 270° West 431 496 34,000  Level FlightAware
09:19AM 38.1240 -93.0300 270° West 431 496 34,000  Level FlightAware
09:19AM 38.1240 -93.1170 270° West 431 496 34,000  Level FlightAware
09:20AM 38.1240 -93.2030 270° West 431 496 34,000  Level FlightAware
09:21AM 38.1210 -93.4240 269° West 426 490 34,000  Level FlightAware
09:21AM 38.1200 -93.5100 269° West 428 493 34,000  Level FlightAware
09:22AM 38.1190 -93.5950 269° West 428 493 34,000  Level FlightAware
09:23AM 38.1180 -93.7020 269° West 428 493 34,000 60 Level FlightAware
09:24AM 38.1180 -93.8440 270° West 437 503 34,100 60 Climbing FlightAware
09:24AM 38.1160 -93.9480 269° West 437 503 34,100  Level FlightAware
09:25AM 38.1150 -94.0610 269° West 434 499 34,100 -600 Level FlightAware
09:26AM 38.1140 -94.1630 269° West 427 491 33,300 -2,160 Descending FlightAware
09:26AM 38.1120 -94.2810 269° West 430 495 31,100 -2,280 Descending FlightAware
09:27AM 38.1110 -94.3780 269° West 418 481 30,100 -780 Descending FlightAware
09:28AM 38.1090 -94.4850 269° West 421 484 30,000 -120 Descending FlightAware
09:28AM 38.1070 -94.5860 269° West 417 480 30,000  Level FlightAware
09:29AM 38.1060 -94.6810 269° West 415 478 30,000  Level FlightAware
09:30AM 38.1040 -94.7930 269° West 412 474 30,000  Level FlightAware
09:31AM 38.1020 -94.8870 268° West 410 472 30,000  Level FlightAware
09:31AM 38.1000 -94.9950 269° West 408 470 30,000  Level FlightAware
09:32AM 38.0980 -95.0900 268° West 409 471 30,000  Level FlightAware
09:33AM 38.0950 -95.2020 268° West 409 471 30,000  Level FlightAware
09:33AM 38.0930 -95.2980 269° West 410 472 30,000  Level FlightAware
09:34AM 38.0910 -95.3940 269° West 412 474 30,000  Level FlightAware
09:35AM 38.0890 -95.5010 269° West 414 476 30,000  Level FlightAware
09:35AM 38.0860 -95.5970 268° West 415 478 30,000  Level FlightAware
09:36AM 38.0840 -95.6960 269° West 416 479 30,000  Level FlightAware
09:37AM 38.0810 -95.8090 268° West 416 479 30,000  Level FlightAware
09:38AM 38.0780 -95.9050 268° West 416 479 30,000  Level FlightAware
09:38AM 38.0750 -96.0120 268° West 416 479 30,000  Level FlightAware
09:39AM 38.0720 -96.1090 268° West 415 478 30,000  Level FlightAware
09:40AM 38.0690 -96.2050 268° West 413 475 30,000  Level FlightAware
09:40AM 38.0660 -96.3190 268° West 412 474 30,000  Level FlightAware
09:41AM 38.0620 -96.4140 267° West 411 473 30,000  Level FlightAware
09:42AM 38.0590 -96.5210 268° West 410 472 30,000  Level FlightAware
09:42AM 38.0560 -96.6180 268° West 411 473 30,000  Level FlightAware
09:43AM 38.0520 -96.7280 267° West 410 472 30,000  Level FlightAware
09:44AM 38.0490 -96.8240 268° West 411 473 30,000  Level FlightAware
09:45AM 38.0450 -96.9190 267° West 411 473 30,000  Level FlightAware
09:45AM 38.0410 -97.0260 267° West 412 474 30,000  Level FlightAware
09:46AM 38.0370 -97.1230 267° West 414 476 30,000  Level FlightAware
09:47AM 38.0330 -97.2350 267° West 414 476 30,000  Level FlightAware
09:47AM 38.0290 -97.3310 267° West 414 476 30,000  Level FlightAware
09:48AM 38.0250 -97.4270 267° West 413 475 30,000  Level FlightAware
09:49AM 38.0210 -97.5250 267° West 413 475 30,000  Level FlightAware
09:49AM 38.0170 -97.6290 267° West 414 476 30,000  Level FlightAware
09:50AM 38.0120 -97.7430 267° West 415 478 30,000  Level FlightAware
09:51AM 38.0080 -97.8400 267° West 416 479 30,000  Level FlightAware
09:52AM 38.0030 -97.9330 266° West 416 479 30,000  Level FlightAware
09:52AM 38.0000 -98.0330 268° West 416 479 30,000  Level FlightAware
09:53AM 37.9980 -98.1450 269° West 416 479 30,000  Level FlightAware
09:54AM 37.9960 -98.2530 269° West 416 479 30,000  Level FlightAware
09:54AM 37.9940 -98.3500 269° West 417 480 30,000  Level FlightAware
09:55AM 37.9920 -98.4480 269° West 418 481 30,000  Level FlightAware
09:56AM 37.9890 -98.5600 268° West 417 480 30,000  Level FlightAware
09:56AM 37.9870 -98.6560 269° West 416 479 30,000  Level FlightAware
09:57AM 37.9840 -98.7620 268° West 415 478 30,000  Level FlightAware
09:58AM 37.9820 -98.8570 268° West 413 475 30,000  Level FlightAware
09:59AM 37.9790 -98.9570 268° West 412 474 30,000  Level FlightAware
09:59AM 37.9760 -99.0670 268° West 411 473 30,000  Level FlightAware
10:00AM 37.9730 -99.1810 268° West 411 473 30,000  Level FlightAware
10:01AM 37.9710 -99.2630 268° West 411 473 30,000  Level FlightAware
10:02AM 37.9680 -99.3650 268° West 411 473 30,000  Level FlightAware
10:02AM 37.9660 -99.4470 268° West 411 473 30,000  Level FlightAware
10:03AM 37.9630 -99.5290 267° West 411 473 30,000  Level FlightAware
10:04AM 37.9610 -99.6110 268° West 411 473 30,000  Level FlightAware
10:04AM 37.9572 -99.7586 268° West 417 480 30,000 60 Level Kansas City Center
10:05AM 37.9525 -99.9000 268° West 420 483 30,100  Climbing Kansas City Center
10:06AM 37.9458 -100.0639 267° West 419 482 30,000 -60 Descending Kansas City Center
10:07AM 37.9408 -100.2047 267° West 419 482 30,000  Level Kansas City Center
10:08AM 37.9353 -100.3456 267° West 419 482 30,000  Level Kansas City Center
10:09AM 37.9286 -100.5083 267° West 417 480 30,000  Level Kansas City Center
10:10AM 37.9247 -100.6483 268° West 418 481 30,000  Level Kansas City Center
10:11AM 37.9514 -100.8050 282° West 416 479 30,000  Level Kansas City Center
10:12AM 38.0053 -100.9492 295° West 410 472 30,000  Level Kansas City Center
10:13AM 38.0539 -101.0744 296° West 414 476 30,000  Level Kansas City Center
10:14AM 38.1092 -101.2214 296° West 415 478 30,000  Level Kansas City Center
10:15AM 38.1411 -101.3053 296° West 417 480 30,000  Level Denver Center
10:21AM 38.4938 -102.0460 296° West 391 450 30,000  Level FlightAware ADS-B
10:21AM 38.5232 -102.1060 302° West 393 452 30,000  Level FlightAware ADS-B
10:22AM 38.5521 -102.1650 302° West 393 452 30,000  Level FlightAware ADS-B
10:23AM 38.5826 -102.2270 302° West 391 450 30,000  Level FlightAware ADS-B
10:23AM 38.6128 -102.2890 302° West 388 447 30,000  Level FlightAware ADS-B
10:24AM 38.6417 -102.3480 302° West 388 447 30,000  Level FlightAware ADS-B
10:24AM 38.6716 -102.4090 302° West 388 447 30,000  Level FlightAware ADS-B
10:25AM 38.7003 -102.4680 302° West 388 447 30,000  Level FlightAware ADS-B
10:25AM 38.7312 -102.5320 302° West 389 448 30,000  Level FlightAware ADS-B
10:26AM 38.7596 -102.5910 302° West 389 448 30,000  Level FlightAware ADS-B
10:26AM 38.7895 -102.6530 302° West 390 449 30,000  Level FlightAware ADS-B
10:27AM 38.8186 -102.7130 302° West 390 449 30,000  Level FlightAware ADS-B
10:27AM 38.8478 -102.7740 302° West 392 451 30,000  Level FlightAware ADS-B
10:28AM 38.8772 -102.8350 302° West 392 451 30,000  Level FlightAware ADS-B
10:28AM 38.9059 -102.8950 302° West 391 450 30,000 -120 Level FlightAware ADS-B
10:29AM 38.9346 -102.9550 302° West 389 448 29,900 -600 Descending FlightAware ADS-B
10:29AM 38.9628 -103.0140 302° West 386 444 29,400 -1,020 Descending FlightAware ADS-B
10:30AM 38.9959 -103.0830 302° West 385 443 28,800 -1,020 Descending FlightAware ADS-B
10:30AM 39.0239 -103.1430 301° West 381 438 28,300 -1,020 Descending FlightAware ADS-B
10:31AM 39.0516 -103.2010 302° West 379 436 27,800 -1,020 Descending FlightAware ADS-B
10:31AM 39.0789 -103.2580 302° West 377 434 27,300 -1,020 Descending FlightAware ADS-B
10:32AM 39.1068 -103.3170 301° West 373 429 26,800 -1,020 Descending FlightAware ADS-B
10:32AM 39.1339 -103.3750 301° West 373 429 26,300 -1,500 Descending FlightAware ADS-B
10:33AM 39.1610 -103.4320 302° West 371 427 25,300 -2,040 Descending FlightAware ADS-B
10:33AM 39.1874 -103.4880 301° West 364 419 24,300 -1,920 Descending FlightAware ADS-B
10:34AM 39.2140 -103.5450 301° West 358 412 23,400 -1,920 Descending FlightAware ADS-B
10:34AM 39.2400 -103.6000 301° West 353 406 22,400 -1,920 Descending FlightAware ADS-B
10:35AM 39.2650 -103.6540 301° West 347 399 21,500 -1,800 Descending FlightAware ADS-B
10:35AM 39.2899 -103.7070 301° West 343 395 20,600 -1,920 Descending FlightAware ADS-B
10:36AM 39.3148 -103.7610 301° West 340 391 19,600 -1,980 Descending FlightAware ADS-B
10:36AM 39.3392 -103.8130 301° West 336 387 18,600 -1,980 Descending FlightAware ADS-B
10:37AM 39.3622 -103.8630 301° West 334 384 17,700 -1,620 Descending FlightAware ADS-B
10:37AM 39.3862 -103.9140 301° West 323 372 17,000 -1,140 Descending FlightAware ADS-B
10:37AM 39.3913 -103.9260 299° West 316 364 17,000  Level FlightAware ADS-B
10:38AM 39.3932 -103.9320 292° West 314 361 17,000  Level FlightAware ADS-B
10:38AM 39.3950 -103.9380 291° West 310 357 17,000  Level FlightAware ADS-B
10:38AM 39.3970 -103.9490 283° West 307 353 17,000 -1,200 Level FlightAware ADS-B
10:38AM 39.4003 -104.0040 274° West 309 356 16,300 -1,500 Descending FlightAware ADS-B
10:39AM 39.4027 -104.0600 273° West 305 351 15,500 -1,620 Descending FlightAware ADS-B
10:39AM 39.4051 -104.1150 273° West 302 348 14,700 -1,680 Descending FlightAware ADS-B
10:40AM 39.4075 -104.1700 273° West 299 344 13,800 -1,500 Descending FlightAware ADS-B
10:40AM 39.4099 -104.2240 273° West 291 335 13,200 -1,020 Descending FlightAware ADS-B
10:41AM 39.4119 -104.2750 273° West 273 314 12,800 -1,140 Descending FlightAware ADS-B
10:41AM 39.4142 -104.3250 273° West 273 314 12,100 -840 Descending FlightAware ADS-B
10:42AM 39.4164 -104.3720 273° West 260 299 12,000 -540 Descending FlightAware ADS-B
10:42AM 39.4184 -104.4180 273° West 255 293 11,600 -840 Descending FlightAware ADS-B
10:43AM 39.4199 -104.4520 273° West 247 284 11,300 -1,020 Descending FlightAware ADS-B
10:43AM 39.4223 -104.4960 274° West 243 280 10,700 -1,320 Descending FlightAware ADS-B
10:43AM 39.4231 -104.5070 275° West 243 280 10,500 -1,680 Descending FlightAware ADS-B
10:43AM 39.4237 -104.5120 279° West 242 278 10,400 -1,500 Descending FlightAware ADS-B
10:43AM 39.4251 -104.5180 287° West 241 277 10,300 -1,740 Descending FlightAware ADS-B
10:43AM 39.4266 -104.5230 291° West 240 276 10,200 -1,500 Descending FlightAware ADS-B
10:44AM 39.4294 -104.5280 306° West 238 274 10,100 -600 Descending FlightAware ADS-B
10:44AM 39.4395 -104.5460 306° West 239 275 10,000 -240 Descending FlightAware ADS-B
10:44AM 39.4463 -104.5580 306° West 238 274 10,000  Level FlightAware ADS-B
10:44AM 39.4557 -104.5750 306° West 226 260 10,000  Level FlightAware ADS-B
10:44AM 39.4580 -104.5790 307° West 223 257 10,000  Level FlightAware ADS-B
10:44AM 39.4609 -104.5830 313° West 220 253 10,000  Level FlightAware ADS-B
10:44AM 39.4636 -104.5860 319° Northwest 217 250 10,000  Level FlightAware ADS-B
10:44AM 39.4677 -104.5890 331° Northwest 214 246 10,000  Level FlightAware ADS-B
10:45AM 39.4735 -104.5930 332° Northwest 213 245 10,000  Level FlightAware ADS-B
10:45AM 39.4870 -104.6020 333° Northwest 213 245 10,000  Level FlightAware ADS-B
10:45AM 39.5008 -104.6110 333° Northwest 212 244 10,000  Level FlightAware ADS-B
10:45AM 39.5152 -104.6210 332° Northwest 212 244 10,000  Level FlightAware ADS-B
10:46AM 39.5280 -104.6290 334° Northwest 201 231 10,000  Level FlightAware ADS-B
10:46AM 39.5420 -104.6390 331° Northwest 191 220 10,000  Level FlightAware ADS-B
10:46AM 39.5445 -104.6400 343° North 190 219 10,000  Level FlightAware ADS-B
10:46AM 39.5471 -104.6410 343° North 189 217 10,000  Level FlightAware ADS-B
10:46AM 39.5511 -104.6430 339° North 189 217 10,000  Level FlightAware ADS-B
10:46AM 39.5546 -104.6430 360° North 188 216 10,000  Level FlightAware ADS-B
10:46AM 39.5582 -104.6440 348° North 189 217 10,000  Level FlightAware ADS-B
10:46AM 39.5699 -104.6440 360° North 189 217 10,000  Level FlightAware ADS-B
10:47AM 39.5833 -104.6450 357° North 189 217 10,000 -240 Level FlightAware ADS-B
10:47AM 39.5912 -104.6450 360° North 190 219 9,900 -720 Descending FlightAware ADS-B
10:47AM 39.6056 -104.6450 360° North 191 220 9,700 -780 Descending FlightAware ADS-B
10:47AM 39.6194 -104.6440 North 189 217 9,500 -960 Descending FlightAware ADS-B
10:48AM 39.6340 -104.6440 360° North 189 217 9,200 -1,200 Descending FlightAware ADS-B
10:48AM 39.6508 -104.6440 360° North 188 216 8,800 -1,200 Descending FlightAware ADS-B
10:48AM 39.6646 -104.6440 360° North 189 217 8,500 -960 Descending FlightAware ADS-B
10:49AM 39.6785 -104.6440 360° North 190 219 8,300 -960 Descending FlightAware ADS-B
10:49AM 39.6927 -104.6430 North 194 223 8,000 -1,080 Descending FlightAware ADS-B
10:49AM 39.7100 -104.6430 360° North 197 227 7,700 -1,020 Descending FlightAware ADS-B
10:49AM 39.7250 -104.6430 360° North 195 224 7,400 -1,080 Descending FlightAware ADS-B
10:50AM 39.7411 -104.6430 360° North 189 217 7,100 -1,080 Descending FlightAware ADS-B
10:50AM 39.7555 -104.6430 360° North 176 203 6,800 -960 Descending FlightAware ADS-B
10:50AM 39.7675 -104.6430 360° North 170 196 6,600 -840 Descending FlightAware ADS-B
10:50AM 39.7792 -104.6420 North 167 192 6,400 -1,020 Descending FlightAware ADS-B
10:51AM 39.7907 -104.6420 360° North 162 186 6,100 -900 Descending FlightAware ADS-B
10:51AM 39.8007 -104.6420 360° North 160 184 6,000 -720 Descending FlightAware ADS-B
10:51AM 39.8111 -104.6420 360° North 160 184 5,800 -1,020 Descending FlightAware ADS-B
10:51AM 39.8183 -104.6420 360° North 161 185 5,600 -1,200 Descending FlightAware ADS-B